»·PEaware :: N717TS KEUG-KAST

N717TS :: KEUG-KAST

FLIGHT INFORMATION

Flight Status: Arrived
Operator: Privately registered:
United States
More flights under this callsign
Pilot: Ty S. (2873)
Aircraft: Diamond DA-62
(DA62)
More flights by this aircraft type
Origin: KEUG Mahlon Sweet
United States
Destination: KAST Astoria Regl
United States
More flights between these airports :: More routes between these airports
Route: CVO KKARP
File this flight plan on PilotEdge
Remarks:
Altitude:
(Current/Filed)
10,000ft
Speed:
(Current/Filed)
180kts
Departed: 22-Jan-20 05:43 PM
Arrived: 22-Jan-20 06:36 PM
Distance/Time
Traveled:
125nm/0:53
Distance/Time
To Go:
Arrived

Flight Plot

Page will automatically refresh every two minutes.

Flight plan parsing failed; only flown route is shown


Map Options




Map Legend


Flown Route
Filed Route
Departure Airport
Arrival Airport
Navaid (VOR, NDB)
Fix

Horizontal Profiles

Position Reports

Time Latitude Longitude Heading Altitude Ground
Speed
22-Jan-20 16:57 44.115149 -123.215522 1 378ft 0kts
22-Jan-20 16:58 44.115149 -123.215522 1 378ft 0kts
22-Jan-20 16:59 44.115149 -123.215522 1 378ft 0kts
22-Jan-20 17:00 44.115149 -123.215522 1 378ft 0kts
22-Jan-20 17:01 44.115149 -123.215522 1 378ft 0kts
22-Jan-20 17:03 44.115149 -123.215522 1 378ft 0kts
22-Jan-20 17:04 44.115149 -123.215522 1 378ft 0kts
22-Jan-20 17:05 44.115149 -123.215522 1 378ft 0kts
22-Jan-20 17:06 44.115149 -123.215522 1 378ft 0kts
22-Jan-20 17:07 44.115149 -123.215522 1 378ft 0kts
22-Jan-20 17:08 44.115149 -123.215522 1 378ft 0kts
22-Jan-20 17:09 44.115149 -123.215522 1 378ft 0kts
22-Jan-20 17:10 44.115149 -123.215522 1 378ft 0kts
22-Jan-20 17:11 44.115149 -123.215522 1 378ft 0kts
22-Jan-20 17:12 44.115149 -123.215522 1 378ft 0kts
22-Jan-20 17:13 44.115149 -123.215522 1 378ft 0kts
22-Jan-20 17:14 44.115149 -123.215522 1 378ft 0kts
22-Jan-20 17:15 44.115149 -123.215522 1 378ft 0kts
22-Jan-20 17:16 44.115149 -123.215522 1 378ft 0kts
22-Jan-20 17:17 44.115149 -123.215522 1 378ft 0kts
22-Jan-20 17:18 44.115149 -123.215522 1 378ft 0kts
22-Jan-20 17:19 44.115149 -123.215522 1 378ft 0kts
22-Jan-20 17:20 44.115149 -123.215522 1 378ft 0kts
22-Jan-20 17:21 44.115149 -123.215522 1 378ft 0kts
22-Jan-20 17:22 44.115149 -123.215522 1 378ft 0kts
22-Jan-20 17:23 44.115149 -123.215522 1 378ft 0kts
22-Jan-20 17:23 44.115149 -123.215522 1 378ft 0kts
22-Jan-20 17:25 44.115149 -123.215522 1 378ft 0kts
22-Jan-20 17:26 44.115149 -123.215522 1 378ft 0kts
22-Jan-20 17:26 44.115149 -123.215522 1 378ft 0kts
22-Jan-20 17:27 44.115149 -123.215522 1 378ft 0kts
22-Jan-20 17:28 44.115212 -123.215520 1 378ft 2kts
22-Jan-20 17:29 44.115225 -123.215519 1 378ft 0kts
22-Jan-20 17:30 44.115225 -123.215519 1 378ft 0kts
22-Jan-20 17:31 44.115225 -123.215519 1 378ft 0kts
22-Jan-20 17:32 44.115225 -123.215519 1 378ft 0kts
22-Jan-20 17:33 44.115225 -123.215519 1 378ft 0kts
22-Jan-20 17:34 44.115225 -123.215519 1 378ft 0kts
22-Jan-20 17:35 44.115225 -123.215519 1 378ft 0kts
22-Jan-20 17:36 44.115225 -123.215519 1 378ft 0kts
22-Jan-20 17:37 44.115452 -123.215792 276 378ft 3kts
22-Jan-20 17:38 44.116970 -123.216950 359 378ft 19kts
22-Jan-20 17:39 44.122883 -123.217045 359 378ft 22kts
22-Jan-20 17:40 44.129571 -123.217147 357 378ft 24kts
22-Jan-20 17:41 44.135302 -123.218049 270 378ft 14kts
22-Jan-20 17:42 44.123312 -123.218783 178 661ft 83kts
22-Jan-20 17:43 44.098580 -123.217139 178 1755ft 91kts
22-Jan-20 17:44 44.073658 -123.215173 178 2977ft 90kts
22-Jan-20 17:45 44.069195 -123.237748 331 4168ft 116kts
22-Jan-20 17:46 44.102205 -123.243989 348 5327ft 122kts
22-Jan-20 17:47 44.136089 -123.248421 346 6476ft 124kts
22-Jan-20 17:48 44.170470 -123.252732 344 7612ft 125kts
22-Jan-20 17:49 44.205016 -123.257017 342 8746ft 125kts
22-Jan-20 17:50 44.239383 -123.261289 341 9871ft 124kts
22-Jan-20 17:51 44.282007 -123.266944 345 9996ft 178kts
22-Jan-20 17:52 44.333823 -123.273203 346 9987ft 191kts
22-Jan-20 17:53 44.387030 -123.279781 346 9983ft 193kts
22-Jan-20 17:54 44.440678 -123.286471 345 9981ft 194kts
22-Jan-20 17:55 44.494451 -123.293286 346 9979ft 194kts
22-Jan-20 17:56 44.548459 -123.298369 347 9980ft 194kts
22-Jan-20 17:57 44.602419 -123.303259 347 9980ft 194kts
22-Jan-20 17:58 44.656390 -123.308154 347 9979ft 195kts
22-Jan-20 17:59 44.710416 -123.313060 347 9977ft 195kts
22-Jan-20 18:00 44.764576 -123.317990 347 9975ft 195kts
22-Jan-20 18:01 44.818582 -123.322920 347 9972ft 195kts
22-Jan-20 18:02 44.872896 -123.327878 347 9960ft 195kts
22-Jan-20 18:03 44.927158 -123.332844 347 9947ft 196kts
22-Jan-20 18:04 44.981613 -123.337850 347 9936ft 196kts
22-Jan-20 18:05 45.036101 -123.342865 348 9936ft 197kts
22-Jan-20 18:06 45.091217 -123.347940 349 9937ft 199kts
22-Jan-20 18:07 45.145062 -123.352882 349 9932ft 200kts
22-Jan-20 18:08 45.200576 -123.357996 349 9932ft 200kts
22-Jan-20 18:09 45.255970 -123.363124 349 9933ft 200kts
22-Jan-20 18:10 45.311541 -123.368277 349 9933ft 200kts
22-Jan-20 18:11 45.367034 -123.373434 349 9933ft 200kts
22-Jan-20 18:12 45.422566 -123.378561 349 9933ft 200kts
22-Jan-20 18:13 45.478182 -123.383745 349 9932ft 200kts
22-Jan-20 18:14 45.533738 -123.388939 349 9930ft 200kts
22-Jan-20 18:15 45.589486 -123.394162 349 9927ft 200kts
22-Jan-20 18:16 45.644364 -123.399296 349 10064ft 197kts
22-Jan-20 18:17 45.699684 -123.404551 349 9862ft 205kts
22-Jan-20 18:18 45.757146 -123.409983 350 8860ft 207kts
22-Jan-20 18:19 45.814690 -123.415325 352 7861ft 207kts
22-Jan-20 18:20 45.872080 -123.420700 352 6862ft 207kts
22-Jan-20 18:21 45.928755 -123.425860 354 5869ft 199kts
22-Jan-20 18:22 45.982558 -123.431036 354 4889ft 189kts
22-Jan-20 18:23 46.031422 -123.435681 355 4537ft 177kts
22-Jan-20 18:24 46.076589 -123.439899 357 4539ft 174kts
22-Jan-20 18:25 46.122583 -123.452264 305 4525ft 167kts
22-Jan-20 18:26 46.134064 -123.512278 267 4510ft 153kts
22-Jan-20 18:27 46.138256 -123.571366 264 3947ft 127kts
22-Jan-20 18:28 46.141567 -123.619197 264 3570ft 122kts
22-Jan-20 18:29 46.144176 -123.658434 263 3135ft 97kts
22-Jan-20 18:30 46.146764 -123.698629 261 2691ft 104kts
22-Jan-20 18:31 46.149543 -123.741527 263 1917ft 106kts
22-Jan-20 18:32 46.152607 -123.782767 261 1390ft 103kts
22-Jan-20 18:33 46.155561 -123.824390 261 718ft 99kts
22-Jan-20 18:34 46.158035 -123.862178 260 172ft 84kts
22-Jan-20 18:35 46.159550 -123.885726 274 19ft 30kts
22-Jan-20 18:36 46.157023 -123.882076 161 19ft 15kts
22-Jan-20 18:37 46.156233 -123.880959 243 19ft 0kts
22-Jan-20 18:44 46.156071 -123.880646 238 19ft 0kts
22-Jan-20 18:45 46.156071 -123.880646 238 19ft 0kts
22-Jan-20 18:46 46.156090 -123.880844 238 19ft 0kts
22-Jan-20 18:47 46.156090 -123.880844 238 19ft 0kts
22-Jan-20 18:48 46.156090 -123.880844 238 19ft 0kts
22-Jan-20 18:49 46.156090 -123.880844 238 19ft 0kts

Navigation Log

Ident Type
Flight plan parsing failed, navigation log unavailable